Time;durP1;ratioP1;P1;durP2;ratioP2;P2;SDS_P1;SDS_P2;PMS_P1;PMS_P2;Temp;Humidity;BMP_temperature;BMP_pressure;BME280_temperature;BME280_humidity;BME280_pressure;Samples;Min_cycle;Max_cycle;Signal;HPM_P1;HPM_P2
2023/09/28 00:01:38;;;;;;;14.80;10.20;;;;;;;14.43;95.75;98448.35;106681;1283;22645;-81
2023/09/28 00:04:06;;;;;;;16.30;10.40;;;;;;;14.39;96.00;98451.42;106711;1283;25331;-84
2023/09/28 00:06:35;;;;;;;13.20;10.20;;;;;;;14.39;96.02;98454.02;106650;1276;25215;-87
2023/09/28 00:09:03;;;;;;;16.30;10.60;;;;;;;14.38;96.27;98456.06;106595;1283;22531;-87
2023/09/28 00:11:31;;;;;;;14.40;11.00;;;;;;;14.35;96.38;98457.45;106595;1283;22892;-86
2023/09/28 00:14:01;;;;;;;16.10;11.30;;;;;;;14.28;96.18;98461.49;106541;1283;25503;-86
2023/09/28 00:16:31;;;;;;;13.10;11.10;;;;;;;14.22;96.44;98458.61;106667;1284;22562;-85
2023/09/28 00:18:59;;;;;;;15.20;11.20;;;;;;;14.21;96.63;98459.89;106582;1284;22550;-85
2023/09/28 00:21:27;;;;;;;16.30;11.30;;;;;;;14.22;96.67;98459.15;106621;1283;25356;-86
2023/09/28 00:23:55;;;;;;;11.70;13.40;;;;;;;14.23;96.84;98460.27;106568;1283;24264;-87
2023/09/28 00:26:26;;;;;;;14.40;12.00;;;;;;;14.26;97.03;98454.95;106646;1260;22530;-86
2023/09/28 00:28:55;;;;;;;17.50;13.40;;;;;;;14.29;97.17;98453.88;106730;1281;22686;-86
2023/09/28 00:31:23;;;;;;;15.90;13.00;;;;;;;14.30;97.11;98449.48;106490;1280;230369;-87
2023/09/28 00:33:53;;;;;;;12.90;10.80;;;;;;;14.26;97.11;98448.71;106618;1283;25287;-87
2023/09/28 00:36:22;;;;;;;16.50;12.70;;;;;;;14.14;97.27;98450.30;106529;1283;23343;-85
2023/09/28 00:38:50;;;;;;;16.10;11.40;;;;;;;14.04;98.91;98448.15;106575;1283;24362;-87
2023/09/28 00:41:19;;;;;;;19.00;11.90;;;;;;;13.99;99.82;98449.46;106649;1283;22915;-88
2023/09/28 00:43:47;;;;;;;13.50;10.70;;;;;;;13.96;98.92;98447.77;106577;1283;22726;-88
2023/09/28 00:46:16;;;;;;;12.90;10.60;;;;;;;13.95;98.65;98450.10;106717;1283;22545;-88
2023/09/28 00:48:58;;;;;;;13.50;11.50;;;;;;;13.90;99.00;98451.14;106597;1282;23234;-86
2023/09/28 00:51:28;;;;;;;14.80;11.40;;;;;;;13.81;98.81;98452.88;108924;1284;22547;-84
2023/09/28 00:54:00;;;;;;;14.90;11.20;;;;;;;13.73;98.60;98452.09;108925;1283;22568;-85
2023/09/28 00:56:30;;;;;;;18.60;11.60;;;;;;;13.66;98.74;98453.48;109031;1283;22554;-85
2023/09/28 00:58:59;;;;;;;14.50;10.00;;;;;;;13.69;98.87;98450.38;108744;1283;25388;-87
2023/09/28 01:01:28;;;;;;;13.40;10.70;;;;;;;13.65;98.39;98455.61;106607;1284;22548;-88
2023/09/28 01:04:48;;;;;;;14.00;10.60;;;;;;;13.64;98.65;98454.55;106669;1284;25398;-81
2023/09/28 01:07:26;;;;;;;12.90;10.20;;;;;;;13.60;98.69;98454.90;106513;1284;23343;-81
2023/09/28 01:09:54;;;;;;;13.30;11.00;;;;;;;13.58;99.13;98450.14;106744;1284;25451;-81
2023/09/28 01:12:22;;;;;;;14.10;10.20;;;;;;;13.51;99.26;98449.59;106598;1284;22680;-82
2023/09/28 01:14:56;;;;;;;14.60;10.60;;;;;;;13.45;99.92;98451.43;106563;1283;23891;-82
2023/09/28 01:17:23;;;;;;;15.20;10.20;;;;;;;13.43;99.92;98450.89;106632;1284;22540;-82
2023/09/28 01:19:53;;;;;;;10.80;9.60;;;;;;;13.46;99.92;98450.80;106557;1284;22641;-83
2023/09/28 01:22:22;;;;;;;11.90;9.90;;;;;;;13.46;99.48;98453.65;106503;1284;25362;-83
2023/09/28 01:24:50;;;;;;;13.80;10.40;;;;;;;13.40;99.66;98449.64;106517;1281;23021;-83
2023/09/28 01:27:18;;;;;;;13.10;10.30;;;;;;;13.36;99.95;98448.17;106518;1284;24247;-83
2023/09/28 01:29:46;;;;;;;17.00;10.30;;;;;;;13.33;99.98;98447.91;106542;1284;22776;-83
2023/09/28 01:32:14;;;;;;;15.10;10.20;;;;;;;13.28;99.46;98451.48;106549;1264;25495;-84
2023/09/28 01:34:42;;;;;;;13.00;9.30;;;;;;;13.22;99.58;98449.91;106519;1284;24209;-80
2023/09/28 01:37:10;;;;;;;15.40;9.50;;;;;;;13.14;99.94;98454.16;106557;1283;22555;-83
2023/09/28 01:39:38;;;;;;;13.30;10.50;;;;;;;13.13;100.00;98452.02;106496;1284;23926;-83
2023/09/28 01:42:06;;;;;;;13.50;10.20;;;;;;;13.14;100.00;98451.95;106539;1280;24205;-83
2023/09/28 01:44:35;;;;;;;13.10;10.20;;;;;;;13.03;100.00;98454.55;106385;1276;24238;-83
2023/09/28 01:47:02;;;;;;;14.50;11.50;;;;;;;12.94;100.00;98452.71;106549;1277;23901;-84
2023/09/28 01:49:31;;;;;;;12.40;9.60;;;;;;;12.93;100.00;98455.13;106486;1276;22687;-83
2023/09/28 01:51:59;;;;;;;12.00;9.80;;;;;;;12.97;100.00;98454.73;106896;1260;24147;-84
2023/09/28 01:54:27;;;;;;;11.40;10.20;;;;;;;12.98;100.00;98450.86;106840;1277;24212;-83
2023/09/28 01:56:55;;;;;;;11.40;9.30;;;;;;;12.99;100.00;98452.48;106593;1283;22535;-83
2023/09/28 01:59:23;;;;;;;12.90;9.00;;;;;;;12.97;100.00;98454.83;106668;1277;22550;-83
2023/09/28 02:01:51;;;;;;;11.10;9.90;;;;;;;12.92;100.00;98454.70;106583;1283;25536;-83
2023/09/28 02:04:20;;;;;;;13.10;10.50;;;;;;;12.91;100.00;98453.38;106582;1283;25416;-84
2023/09/28 02:06:48;;;;;;;13.00;9.60;;;;;;;12.86;100.00;98455.05;106696;1283;25678;-82
2023/09/28 02:09:17;;;;;;;14.90;10.40;;;;;;;12.80;100.00;98453.15;106594;1277;22612;-83
2023/09/28 02:11:46;;;;;;;10.90;9.40;;;;;;;12.81;100.00;98450.61;106731;1280;22665;-81
2023/09/28 02:14:15;;;;;;;13.80;9.90;;;;;;;12.83;100.00;98452.02;106857;1284;22571;-84
2023/09/28 02:16:44;;;;;;;17.30;10.60;;;;;;;12.88;100.00;98451.55;106755;1264;25566;-83
2023/09/28 02:19:13;;;;;;;14.00;10.30;;;;;;;12.93;100.00;98448.80;106681;1260;22530;-83
2023/09/28 02:21:41;;;;;;;10.40;9.30;;;;;;;12.99;100.00;98448.80;106735;1284;23028;-85
2023/09/28 02:24:09;;;;;;;12.00;10.90;;;;;;;12.98;100.00;98447.08;106736;1277;24113;-83
2023/09/28 02:26:37;;;;;;;11.80;9.50;;;;;;;12.94;100.00;98446.83;106643;1284;22533;-82
2023/09/28 02:29:05;;;;;;;10.50;9.00;;;;;;;12.92;100.00;98449.35;106716;1284;24148;-83
2023/09/28 02:31:34;;;;;;;13.20;10.30;;;;;;;12.89;100.00;98448.55;106737;1283;23989;-82
2023/09/28 02:34:02;;;;;;;12.00;9.20;;;;;;;12.87;100.00;98450.21;106641;1283;25377;-83
2023/09/28 02:36:33;;;;;;;11.60;9.60;;;;;;;12.86;100.00;98448.23;106748;1284;22539;-83
2023/09/28 02:39:05;;;;;;;14.30;11.60;;;;;;;12.88;100.00;98446.19;106853;1283;23894;-83
2023/09/28 02:41:35;;;;;;;14.20;10.50;;;;;;;12.94;100.00;98445.70;106599;1283;22557;-83
2023/09/28 02:44:03;;;;;;;11.30;9.20;;;;;;;12.99;100.00;98446.85;106639;1284;22547;-83
2023/09/28 02:46:33;;;;;;;14.70;11.30;;;;;;;12.98;100.00;98444.75;106717;1284;25281;-82
2023/09/28 02:49:02;;;;;;;11.90;10.20;;;;;;;12.97;100.00;98440.94;106976;1280;22558;-83
2023/09/28 02:51:30;;;;;;;11.60;10.40;;;;;;;12.94;100.00;98442.05;106736;1280;25811;-83
2023/09/28 02:53:59;;;;;;;18.00;10.90;;;;;;;12.92;100.00;98441.78;107002;1277;25400;-82
2023/09/28 02:56:27;;;;;;;17.20;11.40;;;;;;;12.94;100.00;98440.05;106728;1283;22484;-85
2023/09/28 02:58:56;;;;;;;13.50;11.00;;;;;;;12.95;100.00;98435.39;106645;1283;24268;-85
2023/09/28 03:01:26;;;;;;;17.10;12.00;;;;;;;12.99;100.00;98438.58;106803;1283;23230;-83
2023/09/28 03:03:54;;;;;;;14.30;11.60;;;;;;;12.99;100.00;98440.36;106740;1283;22791;-83
2023/09/28 03:06:23;;;;;;;14.60;11.00;;;;;;;12.88;100.00;98437.38;106764;1283;22541;-84
2023/09/28 03:08:51;;;;;;;19.20;12.30;;;;;;;12.88;100.00;98440.20;106693;1283;24024;-83
2023/09/28 03:11:18;;;;;;;16.50;10.10;;;;;;;12.90;100.00;98437.27;106675;1283;22601;-83
2023/09/28 03:13:48;;;;;;;14.90;10.80;;;;;;;12.86;100.00;98441.48;106688;1283;25464;-83
2023/09/28 03:16:17;;;;;;;14.00;12.10;;;;;;;12.86;100.00;98439.69;106809;1269;25239;-83
2023/09/28 03:18:44;;;;;;;17.90;13.10;;;;;;;12.88;100.00;98435.70;106850;1276;26112;-83
2023/09/28 03:21:13;;;;;;;14.50;12.60;;;;;;;12.91;100.00;98436.77;107069;1283;24722;-82
2023/09/28 03:23:41;;;;;;;14.10;12.50;;;;;;;12.92;100.00;98437.77;106710;1283;25387;-82
2023/09/28 03:26:10;;;;;;;18.10;13.80;;;;;;;12.87;100.00;98437.66;106489;1273;22591;-82
2023/09/28 03:28:38;;;;;;;13.70;12.00;;;;;;;12.86;100.00;98435.31;106679;1283;22572;-83
2023/09/28 03:31:06;;;;;;;13.80;12.20;;;;;;;12.83;100.00;98433.09;106709;1284;22685;-81
2023/09/28 03:33:34;;;;;;;14.10;12.30;;;;;;;12.81;100.00;98435.45;106741;1269;22591;-82
2023/09/28 03:36:02;;;;;;;16.30;14.30;;;;;;;12.82;100.00;98438.41;106728;1283;25590;-83
2023/09/28 03:38:30;;;;;;;16.20;14.50;;;;;;;12.84;100.00;98440.16;106693;1283;22540;-83
2023/09/28 03:40:59;;;;;;;15.50;13.80;;;;;;;12.84;100.00;98439.77;106639;1283;22544;-83
2023/09/28 03:43:27;;;;;;;20.10;13.60;;;;;;;12.81;100.00;98444.92;106634;1283;22605;-83
2023/09/28 03:45:54;;;;;;;17.20;13.20;;;;;;;12.79;100.00;98447.39;106639;1283;22556;-83
2023/09/28 03:48:22;;;;;;;14.90;13.30;;;;;;;12.78;100.00;98447.20;106682;1283;24302;-83
2023/09/28 03:50:50;;;;;;;21.70;13.40;;;;;;;12.80;100.00;98445.70;106657;1283;22560;-83
2023/09/28 03:53:18;;;;;;;17.20;13.70;;;;;;;12.84;100.00;98445.19;106691;1283;22544;-83
2023/09/28 03:55:47;;;;;;;15.60;14.00;;;;;;;12.89;100.00;98442.65;106622;1283;25412;-82
2023/09/28 03:58:16;;;;;;;14.20;12.50;;;;;;;12.94;100.00;98442.12;106566;1283;22639;-82
2023/09/28 04:00:44;;;;;;;15.10;13.50;;;;;;;12.92;100.00;98440.16;106593;1283;25555;-82
2023/09/28 04:03:13;;;;;;;16.40;14.50;;;;;;;12.89;100.00;98436.11;106709;1282;24360;-82
2023/09/28 04:05:41;;;;;;;16.30;13.70;;;;;;;12.96;100.00;98435.70;106836;1282;24381;-83
2023/09/28 04:08:09;;;;;;;17.30;14.30;;;;;;;13.04;100.00;98435.20;106731;1282;24209;-83
2023/09/28 04:10:37;;;;;;;16.50;14.70;;;;;;;13.14;100.00;98439.89;106790;1282;22550;-82
2023/09/28 04:13:05;;;;;;;17.40;14.90;;;;;;;13.22;100.00;98436.41;106774;1282;23889;-83
2023/09/28 04:15:33;;;;;;;16.60;14.10;;;;;;;13.29;100.00;98437.38;106764;1282;22530;-82
2023/09/28 04:18:00;;;;;;;17.70;14.20;;;;;;;13.35;100.00;98436.90;106770;1282;22964;-82
2023/09/28 04:20:29;;;;;;;19.10;15.10;;;;;;;13.35;100.00;98433.30;106723;1282;22622;-83
2023/09/28 04:22:58;;;;;;;18.30;15.10;;;;;;;13.31;100.00;98432.64;106647;1282;22647;-83
2023/09/28 04:25:27;;;;;;;15.80;14.20;;;;;;;13.26;100.00;98437.56;106658;1270;23934;-82
2023/09/28 04:27:55;;;;;;;16.60;14.40;;;;;;;13.20;100.00;98440.85;106638;1275;25376;-81
2023/09/28 04:30:23;;;;;;;15.50;12.80;;;;;;;13.14;100.00;98438.70;106604;1284;22552;-81
2023/09/28 04:32:51;;;;;;;15.60;13.80;;;;;;;13.10;100.00;98440.45;106851;1279;22592;-82
2023/09/28 04:35:20;;;;;;;15.80;14.10;;;;;;;13.09;100.00;98442.70;106808;1283;23126;-84
2023/09/28 04:37:49;;;;;;;17.60;15.80;;;;;;;13.06;100.00;98438.31;106767;1276;22663;-83
2023/09/28 04:40:23;;;;;;;19.00;14.80;;;;;;;13.06;100.00;98439.57;108541;1283;22556;-82
2023/09/28 04:42:53;;;;;;;17.50;15.20;;;;;;;13.07;100.00;98439.50;109722;1283;22663;-85
2023/09/28 04:45:22;;;;;;;20.90;14.80;;;;;;;13.07;100.00;98436.52;109336;1275;22558;-82
2023/09/28 04:47:50;;;;;;;14.50;13.00;;;;;;;13.07;100.00;98435.27;109755;1283;22291;-82
2023/09/28 04:50:18;;;;;;;16.10;14.20;;;;;;;13.07;100.00;98439.31;106909;1283;25214;-82
2023/09/28 04:52:46;;;;;;;20.30;18.00;;;;;;;13.07;100.00;98436.82;106705;1283;22516;-81
2023/09/28 04:55:14;;;;;;;18.70;14.20;;;;;;;13.02;100.00;98437.05;106657;1283;22554;-84
2023/09/28 04:57:42;;;;;;;16.70;13.80;;;;;;;12.95;100.00;98438.10;106699;1284;22677;-83
2023/09/28 05:00:15;;;;;;;16.20;13.80;;;;;;;12.88;100.00;98437.91;106611;1283;25405;-84
2023/09/28 05:02:46;;;;;;;15.20;13.60;;;;;;;12.84;100.00;98436.85;106601;1283;23931;-84
2023/09/28 05:05:15;;;;;;;17.00;14.40;;;;;;;12.83;100.00;98438.02;106732;1276;25362;-83
2023/09/28 05:07:45;;;;;;;17.20;14.20;;;;;;;12.82;100.00;98438.25;106811;1276;22625;-82
2023/09/28 05:10:14;;;;;;;13.60;12.00;;;;;;;12.82;100.00;98440.10;106708;1277;22541;-81
2023/09/28 05:12:44;;;;;;;18.50;12.90;;;;;;;12.80;100.00;98439.31;106659;1283;24210;-82
2023/09/28 05:15:13;;;;;;;20.20;14.30;;;;;;;12.80;100.00;98442.56;106750;1276;23210;-82
2023/09/28 05:17:42;;;;;;;16.20;14.50;;;;;;;12.80;100.00;98446.02;106807;1269;22594;-80
2023/09/28 05:20:11;;;;;;;21.20;16.70;;;;;;;12.77;100.00;98448.95;106733;1280;22542;-82
2023/09/28 05:22:40;;;;;;;23.30;20.00;;;;;;;12.77;100.00;98448.74;106221;1280;22548;-80
2023/09/28 05:25:08;;;;;;;25.10;21.00;;;;;;;12.80;100.00;98449.64;106553;1278;22534;-81
2023/09/28 05:27:36;;;;;;;17.80;15.10;;;;;;;12.85;100.00;98450.27;106589;1277;22538;-82
2023/09/28 05:30:05;;;;;;;19.50;14.70;;;;;;;12.94;100.00;98448.93;106610;1284;24300;-82
2023/09/28 05:32:33;;;;;;;16.50;14.90;;;;;;;13.02;100.00;98449.98;106345;1283;22537;-80
2023/09/28 05:35:02;;;;;;;17.90;15.50;;;;;;;13.09;100.00;98453.55;106304;1283;22556;-81
2023/09/28 05:37:31;;;;;;;15.90;14.20;;;;;;;13.25;100.00;98460.84;106706;1276;25495;-83
2023/09/28 05:40:00;;;;;;;21.10;16.70;;;;;;;13.42;100.00;98459.80;106713;1276;25338;-81
2023/09/28 05:42:28;;;;;;;20.20;15.10;;;;;;;13.60;100.00;98461.67;106685;1269;22661;-80
2023/09/28 05:44:56;;;;;;;20.20;13.90;;;;;;;13.80;100.00;98464.98;106678;1275;23409;-84
2023/09/28 05:47:23;;;;;;;20.20;14.50;;;;;;;13.98;100.00;98461.79;106734;1280;22530;-82
2023/09/28 05:49:52;;;;;;;21.60;15.30;;;;;;;14.17;100.00;98462.98;106710;1283;22553;-82
2023/09/28 05:52:20;;;;;;;18.50;14.40;;;;;;;14.35;100.00;98464.98;106595;1283;24279;-82
2023/09/28 05:54:49;;;;;;;14.60;12.40;;;;;;;14.53;100.00;98468.23;106489;1261;22536;-82
2023/09/28 05:57:18;;;;;;;15.70;13.70;;;;;;;14.71;100.00;98461.33;106554;1277;22660;-83
2023/09/28 05:59:46;;;;;;;16.60;14.90;;;;;;;14.86;100.00;98463.34;106650;1283;24286;-82
2023/09/28 06:02:15;;;;;;;19.70;15.00;;;;;;;14.98;100.00;98459.39;106660;1283;22542;-81
2023/09/28 06:04:43;;;;;;;30.70;15.70;;;;;;;15.08;100.00;98465.78;106677;1283;22584;-82
2023/09/28 06:07:11;;;;;;;21.80;14.80;;;;;;;15.19;100.00;98467.55;106718;1282;22776;-81
2023/09/28 06:09:41;;;;;;;28.80;15.80;;;;;;;15.32;100.00;98468.63;106655;1283;22547;-82
2023/09/28 06:12:09;;;;;;;23.00;15.00;;;;;;;15.44;100.00;98465.78;106726;1283;24195;-80
2023/09/28 06:14:38;;;;;;;29.60;15.90;;;;;;;15.54;100.00;98467.33;106716;1283;25244;-81
2023/09/28 06:17:05;;;;;;;23.30;15.00;;;;;;;15.62;100.00;98466.23;106683;1283;22809;-81
2023/09/28 06:19:33;;;;;;;16.80;13.90;;;;;;;15.73;100.00;98464.80;106722;1283;22593;-81
2023/09/28 06:22:14;;;;;;;17.70;12.10;;;;;;;15.85;100.00;98464.66;106584;1283;22533;-81
2023/09/28 06:24:42;;;;;;;25.50;13.70;;;;;;;15.96;100.00;98469.04;106739;1283;25336;-81
2023/09/28 06:27:10;;;;;;;15.20;10.60;;;;;;;16.10;100.00;98467.95;106701;1283;23888;-81
2023/09/28 06:29:38;;;;;;;13.30;11.40;;;;;;;16.25;100.00;98466.27;106703;1283;23892;-82
2023/09/28 06:32:08;;;;;;;15.30;11.50;;;;;;;16.38;100.00;98463.27;106743;1283;25577;-81
2023/09/28 06:34:36;;;;;;;13.10;11.70;;;;;;;16.50;100.00;98465.54;106676;1283;22582;-81
2023/09/28 06:37:04;;;;;;;15.10;11.10;;;;;;;16.61;100.00;98464.17;106718;1283;25358;-81
2023/09/28 06:39:31;;;;;;;13.20;10.40;;;;;;;16.73;100.00;98463.02;106637;1283;22580;-80
2023/09/28 06:42:00;;;;;;;18.40;11.40;;;;;;;16.87;100.00;98462.36;106629;1283;22597;-81
2023/09/28 06:44:48;;;;;;;15.40;12.10;;;;;;;17.02;100.00;98461.45;106593;1283;22661;-82
2023/09/28 06:47:16;;;;;;;12.50;9.90;;;;;;;17.17;100.00;98465.85;106598;1283;24329;-81
2023/09/28 06:49:44;;;;;;;19.00;12.10;;;;;;;17.29;100.00;98466.88;106605;1283;22559;-80
2023/09/28 06:52:12;;;;;;;14.60;10.70;;;;;;;17.40;100.00;98471.65;106668;1283;23268;-84
2023/09/28 06:54:39;;;;;;;14.50;10.00;;;;;;;17.50;100.00;98475.15;106668;1283;22534;-86
2023/09/28 06:57:08;;;;;;;16.80;10.70;;;;;;;17.61;100.00;98476.04;106437;1283;22540;-82
2023/09/28 06:59:37;;;;;;;15.00;10.40;;;;;;;17.71;100.00;98479.02;106675;1284;26517;-84
2023/09/28 07:02:05;;;;;;;15.10;9.80;;;;;;;17.77;100.00;98479.57;106700;1283;22599;-87
2023/09/28 07:04:33;;;;;;;15.60;10.10;;;;;;;17.86;100.00;98484.71;106657;1283;22540;-85
2023/09/28 07:07:01;;;;;;;16.60;9.70;;;;;;;17.91;100.00;98482.36;106670;1283;24397;-86
2023/09/28 07:09:29;;;;;;;16.90;10.80;;;;;;;17.98;100.00;98481.66;106762;1271;22544;-85
2023/09/28 07:12:04;;;;;;;13.10;9.60;;;;;;;18.06;100.00;98485.86;106627;1283;25348;-87
2023/09/28 07:14:32;;;;;;;14.50;9.70;;;;;;;18.15;100.00;98493.27;106386;1275;22544;-86
2023/09/28 07:17:00;;;;;;;17.10;10.60;;;;;;;18.23;100.00;98493.80;106711;1269;22545;-85
2023/09/28 07:19:28;;;;;;;12.50;10.30;;;;;;;18.32;100.00;98499.04;106677;1278;22725;-87
2023/09/28 07:21:56;;;;;;;12.20;9.70;;;;;;;18.38;100.00;98500.35;106759;1283;22560;-88
2023/09/28 07:24:26;;;;;;;15.00;10.40;;;;;;;18.42;100.00;98502.42;106577;1277;22550;-87
2023/09/28 07:26:54;;;;;;;14.00;9.60;;;;;;;18.47;100.00;98504.48;106647;1284;22540;-85
2023/09/28 07:29:21;;;;;;;15.30;10.40;;;;;;;18.51;100.00;98506.10;106369;1283;22670;-87
2023/09/28 07:31:50;;;;;;;13.20;9.60;;;;;;;18.54;99.97;98503.88;106743;1283;22553;-87
2023/09/28 07:34:18;;;;;;;18.50;10.80;;;;;;;18.58;99.74;98497.77;106716;1276;24273;-89
2023/09/28 07:36:46;;;;;;;20.80;10.40;;;;;;;18.63;98.85;98499.34;106737;1283;22494;-88
2023/09/28 07:39:14;;;;;;;14.90;10.50;;;;;;;18.69;98.75;98502.42;107082;1284;22528;-86
2023/09/28 07:41:44;;;;;;;18.00;10.70;;;;;;;18.74;98.61;98500.90;107013;1261;22537;-87
2023/09/28 07:44:12;;;;;;;17.60;11.20;;;;;;;18.79;98.04;98502.65;106685;1283;24392;-87
2023/09/28 07:46:41;;;;;;;15.00;10.60;;;;;;;18.85;97.78;98502.30;106627;1284;25354;-82
2023/09/28 07:49:09;;;;;;;12.20;9.90;;;;;;;18.95;97.99;98507.33;106371;1283;24369;-80
2023/09/28 07:51:39;;;;;;;15.50;10.50;;;;;;;19.06;97.68;98502.63;106695;1276;23006;-82
2023/09/28 07:54:07;;;;;;;13.10;10.70;;;;;;;19.16;97.52;98501.95;106867;1264;24234;-82
2023/09/28 07:56:35;;;;;;;18.40;10.20;;;;;;;19.25;97.22;98499.34;106822;1277;25355;-84
2023/09/28 07:59:03;;;;;;;19.50;10.30;;;;;;;19.36;97.17;98496.86;106733;1277;25147;-85
2023/09/28 08:01:37;;;;;;;14.70;9.10;;;;;;;19.45;95.84;98496.54;106816;1262;22563;-82
2023/09/28 08:04:05;;;;;;;11.90;9.40;;;;;;;19.54;95.87;98499.06;106471;1276;22659;-82
2023/09/28 08:06:34;;;;;;;12.50;10.10;;;;;;;19.64;95.50;98496.49;106462;1277;22580;-81
2023/09/28 08:09:02;;;;;;;11.30;9.40;;;;;;;19.74;95.34;98499.39;106421;1276;24215;-83
2023/09/28 08:11:30;;;;;;;12.80;9.40;;;;;;;19.84;94.83;98497.90;106762;1283;24284;-84
2023/09/28 08:13:58;;;;;;;13.80;9.10;;;;;;;19.90;94.13;98499.20;107051;1276;22583;-85
2023/09/28 08:16:27;;;;;;;11.50;9.20;;;;;;;19.97;94.14;98495.62;106413;1276;22685;-81
2023/09/28 08:18:55;;;;;;;14.80;9.70;;;;;;;20.06;93.67;98497.83;106435;1283;22521;-82
2023/09/28 08:21:26;;;;;;;12.80;9.30;;;;;;;20.14;93.50;98491.42;106813;1283;22569;-84
2023/09/28 08:23:55;;;;;;;12.60;9.80;;;;;;;20.22;92.85;98498.40;107054;1283;23959;-83
2023/09/28 08:26:23;;;;;;;15.40;8.60;;;;;;;20.31;92.14;98499.25;106818;1283;25343;-84
2023/09/28 08:28:52;;;;;;;15.90;10.10;;;;;;;20.39;92.00;98497.30;108934;1283;22551;-84
2023/09/28 08:31:20;;;;;;;13.60;10.20;;;;;;;20.49;91.63;98496.84;109063;1283;22560;-83
2023/09/28 08:33:49;;;;;;;15.80;9.70;;;;;;;20.56;91.68;98498.87;108787;1283;22640;-84
2023/09/28 08:36:17;;;;;;;11.70;9.20;;;;;;;20.66;91.33;98497.20;108512;1283;25450;-83
2023/09/28 08:38:46;;;;;;;16.80;9.90;;;;;;;20.73;89.52;98497.77;106484;1283;23902;-85
2023/09/28 08:41:19;;;;;;;15.10;8.30;;;;;;;20.84;90.33;98495.70;106986;1283;22558;-88
2023/09/28 08:43:54;;;;;;;17.60;9.20;;;;;;;21.01;89.19;98492.44;107955;1283;22558;-90
2023/09/28 08:50:38;;;;;;;10.50;8.20;;;;;;;21.31;88.53;98493.49;106834;1283;22553;-86
2023/09/28 08:53:06;;;;;;;16.50;9.20;;;;;;;21.44;87.89;98498.01;106918;1283;25537;-87
2023/09/28 08:55:38;;;;;;;24.50;9.40;;;;;;;21.53;86.30;98495.07;106777;1283;22540;-86
2023/09/28 08:58:06;;;;;;;16.70;8.90;;;;;;;21.62;86.12;98490.16;106868;1278;23030;-86
2023/09/28 09:00:36;;;;;;;13.40;8.50;;;;;;;21.67;85.37;98493.19;106818;1283;22534;-86
2023/09/28 09:03:06;;;;;;;12.40;8.20;;;;;;;21.78;85.46;98493.73;107446;1283;23175;-89
2023/09/28 09:05:40;;;;;;;10.80;7.70;;;;;;;21.93;85.10;98488.34;108008;1283;22545;-88
2023/09/28 09:08:10;;;;;;;12.30;8.30;;;;;;;22.04;82.85;98487.38;106919;1283;22588;-87
2023/09/28 09:10:40;;;;;;;13.90;8.30;;;;;;;22.13;83.37;98487.67;106899;1283;22624;-86
2023/09/28 09:13:20;;;;;;;12.90;7.60;;;;;;;22.25;82.80;98484.01;106868;1283;22622;-87
2023/09/28 09:15:49;;;;;;;14.50;7.80;;;;;;;22.43;83.23;98482.39;106958;1283;22557;-87
2023/09/28 09:18:24;;;;;;;14.30;8.10;;;;;;;22.55;82.42;98483.50;106738;1283;22587;-86
2023/09/28 09:20:58;;;;;;;12.30;8.10;;;;;;;22.69;81.26;98483.34;106746;1277;22867;-87
2023/09/28 09:23:28;;;;;;;12.10;8.00;;;;;;;22.79;81.18;98482.35;106899;1281;23328;-85
2023/09/28 09:26:27;;;;;;;14.80;7.50;;;;;;;22.87;80.16;98484.70;106931;1283;22584;-87
2023/09/28 09:28:58;;;;;;;10.90;7.70;;;;;;;22.99;80.43;98480.91;106846;1283;22552;-86
2023/09/28 09:31:27;;;;;;;13.20;7.60;;;;;;;23.11;79.90;98480.19;106902;1275;22537;-86
2023/09/28 09:34:21;;;;;;;11.10;8.10;;;;;;;23.23;80.29;98481.30;106758;1281;22536;-86
2023/09/28 09:36:55;;;;;;;10.10;7.20;;;;;;;23.36;79.98;98478.92;107344;1283;22664;-89
2023/09/28 09:39:50;;;;;;;;;;;;;;;23.48;79.81;98477.95;106975;1283;22721;-90
2023/09/28 09:42:26;;;;;;;13.80;7.30;;;;;;;23.62;79.33;98476.63;106963;1283;22571;-87
2023/09/28 09:44:55;;;;;;;12.30;7.10;;;;;;;23.73;78.29;98477.91;106804;1283;26101;-86
2023/09/28 09:47:25;;;;;;;13.90;7.10;;;;;;;23.83;76.49;98478.52;107122;1280;22561;-86
2023/09/28 09:49:55;;;;;;;12.40;6.90;;;;;;;23.94;76.53;98480.97;107123;1283;25417;-86
2023/09/28 09:52:26;;;;;;;11.50;6.50;;;;;;;24.04;75.42;98478.34;106869;1275;23403;-83
2023/09/28 09:54:55;;;;;;;10.70;6.40;;;;;;;24.12;74.57;98478.66;106871;1275;25480;-85
2023/09/28 09:57:54;;;;;;;10.00;6.10;;;;;;;24.20;74.10;98474.83;106819;1278;22543;-87
2023/09/28 10:00:23;;;;;;;12.00;6.20;;;;;;;24.30;73.82;98475.58;106857;1277;24210;-86
2023/09/28 10:02:53;;;;;;;13.40;6.00;;;;;;;24.40;73.51;98469.64;106780;1284;25298;-85
2023/09/28 10:05:24;;;;;;;10.60;6.10;;;;;;;24.48;72.97;98472.43;106879;1283;25376;-84
2023/09/28 10:07:52;;;;;;;8.50;6.00;;;;;;;24.56;72.50;98471.09;106907;1283;22619;-86
2023/09/28 10:10:22;;;;;;;10.10;5.90;;;;;;;24.64;72.28;98464.02;106946;1262;24218;-87
2023/09/28 10:12:56;;;;;;;11.20;5.80;;;;;;;24.76;70.82;98463.58;106848;1278;22534;-85
2023/09/28 10:15:25;;;;;;;;;;;;;;;24.88;70.79;98462.98;106851;1283;22526;-85
2023/09/28 10:17:53;;;;;;;8.50;5.00;;;;;;;24.99;69.99;98467.48;106965;1281;24369;-85
2023/09/28 10:20:22;;;;;;;10.30;5.70;;;;;;;25.09;69.03;98460.46;106970;1280;23896;-83
2023/09/28 10:22:50;;;;;;;10.40;5.20;;;;;;;25.15;65.75;98459.29;106873;1283;22767;-84
2023/09/28 10:25:20;;;;;;;13.20;5.50;;;;;;;25.14;66.57;98455.88;106801;1283;23263;-86
2023/09/28 10:27:48;;;;;;;14.70;6.40;;;;;;;25.24;65.77;98456.60;106873;1260;22571;-89
2023/09/28 10:30:20;;;;;;;11.90;5.80;;;;;;;25.28;64.34;98454.97;106884;1284;22691;-88
2023/09/28 10:32:57;;;;;;;12.00;6.80;;;;;;;25.33;65.76;98455.09;107273;1283;22536;-86
2023/09/28 10:35:28;;;;;;;9.80;6.80;;;;;;;25.42;65.52;98455.08;106759;1284;25246;-86
2023/09/28 10:38:17;;;;;;;15.10;6.50;;;;;;;25.46;65.55;98455.73;106801;1278;22598;-86
2023/09/28 10:41:02;;;;;;;10.40;5.90;;;;;;;25.57;64.59;98459.89;106749;1284;22582;-85
2023/09/28 10:43:40;;;;;;;11.00;6.10;;;;;;;25.67;64.08;98459.09;106721;1283;22644;-85
2023/09/28 10:46:12;;;;;;;10.50;5.30;;;;;;;25.78;63.07;98459.62;106861;1271;24242;-84
2023/09/28 10:48:45;;;;;;;12.10;5.60;;;;;;;25.83;62.97;98453.36;106682;1281;22578;-85
2023/09/28 10:51:16;;;;;;;7.80;5.00;;;;;;;25.90;62.65;98457.03;106771;1283;22727;-85
2023/09/28 10:53:45;;;;;;;8.50;5.20;;;;;;;25.99;62.60;98454.94;106607;1283;25293;-84
2023/09/28 10:56:14;;;;;;;7.60;5.20;;;;;;;26.07;62.09;98459.86;106792;1283;22625;-85
2023/09/28 10:58:42;;;;;;;8.20;5.10;;;;;;;26.13;61.63;98455.23;106882;1259;24250;-86
2023/09/28 11:01:14;;;;;;;8.70;4.40;;;;;;;26.24;61.08;98455.73;107004;1278;22571;-85
2023/09/28 11:04:10;;;;;;;9.70;5.10;;;;;;;26.37;60.71;98458.86;106764;1277;23132;-86
2023/09/28 11:06:43;;;;;;;11.50;5.10;;;;;;;26.50;58.66;98460.73;106608;1281;22523;-86
2023/09/28 11:09:14;;;;;;;8.50;4.90;;;;;;;26.55;58.42;98455.22;106788;1284;22545;-86
2023/09/28 11:11:42;;;;;;;7.70;4.20;;;;;;;26.65;58.42;98457.13;106718;1283;25301;-86
2023/09/28 11:14:10;;;;;;;8.70;4.40;;;;;;;26.72;57.98;98456.04;106840;1283;24253;-85
2023/09/28 11:16:40;;;;;;;17.60;4.80;;;;;;;26.86;57.45;98452.81;106834;1283;22558;-86
2023/09/28 11:19:09;;;;;;;8.30;4.60;;;;;;;26.90;55.25;98453.29;106736;1284;23888;-86
2023/09/28 11:21:37;;;;;;;9.30;4.40;;;;;;;26.99;55.45;98452.98;106824;1281;25410;-87
2023/09/28 11:24:06;;;;;;;8.50;4.30;;;;;;;27.06;54.43;98453.05;106809;1283;22828;-85
2023/09/28 11:26:35;;;;;;;9.50;5.00;;;;;;;27.09;53.07;98448.94;106757;1278;22558;-85